Portada
METAR-TAF:

METAR-TAF

Aeropuertos :

Aeropuerto de Dundee

Dundee, Escocia

latitud: 56-27N, longitud: 003-01W, altitud: 4 m

Observación

El informe se hizo hace 13 minutos, a las 13:20 UTC
Viento 3 kt del sur-suroeste
Temperatura 16°C
Humedad 82%
Presión 1010 hPa
Visibilidad 10 km o más
Escasas nubes a una altura de 2000 ft
Nubes dispersas a una altura de 4800 ft
lluvia ligera, llovizna,

METAR: EGPN 141320Z 21003KT 9999 -RADZ FEW020 SCT048 16/13 Q1010

Hora: 14:33 (13:33 UTC)

Pronóstico

El informe se hizo hace 2 horas y 35 minutos, a las 10:58 UTC
Pronóstico válido del 14 a las 12 UTC al 14 a las 21 UTC
Viento 6 kt del este-sureste
Visibilidad 10 km o más
Escasas nubes a una altura de 1200 ft
Probabilidad 30% :
Temporalmente
del 14 a las 12 UTC al 14 a las 21 UTC
Cielo nuboso a una altura de 1000 ft

TAF: EGPN 141058Z 1412/1421 11006KT 9999 FEW012 PROB30 TEMPO 1412/1421 BKN010

Observaciones y pronósticos meteorológicos de más de 4000 aeropuertos (mensajes METAR y TAF).

Los puntos amarillos y rojos representan las estaciones disponibles.

Ponga el ratón en el punto deseado para ver el nombre de la estación.

Haga clic para ver las observaciones y los pronósticos meteorológicos.

Para cambiar el mapa : haga clic en los botones verdes con una cruz de color negro para hacer un zoom, en el botón verde con un guión para alejar o en las flechas verdes para mapas adyacentes.


METAR-TAF: